Time;durP1;ratioP1;P1;durP2;ratioP2;P2;SDS_P1;SDS_P2;PMS_P1;PMS_P2;Temp;Humidity;BMP_temperature;BMP_pressure;BME280_temperature;BME280_humidity;BME280_pressure;Samples;Min_cycle;Max_cycle;Signal;HPM_P1;HPM_P2
2023/09/16 00:00:06;;;;;;;15.15;11.85;;;13.60;99.90;;;;;;5011440;28;20040;-68
2023/09/16 00:02:32;;;;;;;17.10;11.93;;;13.60;99.90;;;;;;5006483;28;20042;-69
2023/09/16 00:04:57;;;;;;;14.70;11.27;;;13.60;99.90;;;;;;4986932;28;20042;-69
2023/09/16 00:07:23;;;;;;;16.52;11.10;;;13.60;99.90;;;;;;5014140;28;20120;-68
2023/09/16 00:09:48;;;;;;;16.27;11.43;;;13.60;99.90;;;;;;5006968;28;20396;-68
2023/09/16 00:12:14;;;;;;;15.07;11.25;;;13.60;99.90;;;;;;4988995;28;20171;-68
2023/09/16 00:14:39;;;;;;;15.30;11.48;;;13.60;99.90;;;;;;5008126;28;20045;-69
2023/09/16 00:17:05;;;;;;;14.20;11.00;;;13.50;99.90;;;;;;4993356;28;20049;-68
2023/09/16 00:19:31;;;;;;;14.63;11.60;;;13.40;99.90;;;;;;4981980;28;20112;-68
2023/09/16 00:21:57;;;;;;;16.02;10.45;;;13.40;99.90;;;;;;5004943;28;20042;-68
2023/09/16 00:24:23;;;;;;;17.33;10.88;;;13.40;99.90;;;;;;4996491;28;20459;-68
2023/09/16 00:26:49;;;;;;;14.52;10.68;;;13.30;99.90;;;;;;5007942;28;20034;-68
2023/09/16 00:29:14;;;;;;;15.95;12.02;;;13.30;99.90;;;;;;4986203;28;20044;-68
2023/09/16 00:31:40;;;;;;;18.10;13.35;;;13.30;99.90;;;;;;5008502;28;20399;-68
2023/09/16 00:34:05;;;;;;;15.82;12.90;;;13.30;99.90;;;;;;5011545;28;20111;-68
2023/09/16 00:36:31;;;;;;;19.25;13.73;;;13.30;99.90;;;;;;5009147;28;20038;-68
2023/09/16 00:38:56;;;;;;;16.83;13.23;;;13.40;99.90;;;;;;5010235;28;20065;-70
2023/09/16 00:41:22;;;;;;;18.77;13.77;;;13.30;99.90;;;;;;5010458;28;20088;-69
2023/09/16 00:43:48;;;;;;;20.05;13.85;;;13.40;99.90;;;;;;5010914;28;20037;-69
2023/09/16 00:46:13;;;;;;;17.95;13.50;;;13.40;99.90;;;;;;5004240;28;20049;-70
2023/09/16 00:48:39;;;;;;;18.30;13.10;;;13.40;99.90;;;;;;5007659;28;20543;-69
2023/09/16 00:51:06;;;;;;;15.32;12.25;;;13.30;99.90;;;;;;5010773;28;20034;-70
2023/09/16 00:53:32;;;;;;;16.45;12.55;;;13.30;99.90;;;;;;5003767;28;20085;-69
2023/09/16 00:55:59;;;;;;;16.83;12.73;;;13.20;99.90;;;;;;5014791;28;20412;-69
2023/09/16 00:58:26;;;;;;;16.52;12.73;;;13.20;99.90;;;;;;5019346;28;20069;-70
2023/09/16 01:00:52;;;;;;;16.95;12.52;;;13.10;99.90;;;;;;4992876;28;20101;-69
2023/09/16 01:03:19;;;;;;;21.73;14.27;;;13.10;99.90;;;;;;5009790;28;20066;-70
2023/09/16 01:05:47;;;;;;;17.27;13.93;;;13.10;99.90;;;;;;4991249;28;20116;-70
2023/09/16 01:08:12;;;;;;;19.13;15.02;;;13.20;99.90;;;;;;4995017;28;20088;-69
2023/09/16 01:10:41;;;;;;;19.70;15.15;;;13.20;99.90;;;;;;4990409;28;20034;-68
2023/09/16 01:13:08;;;;;;;20.08;15.82;;;13.20;99.90;;;;;;4987735;28;20511;-68
2023/09/16 01:15:42;;;;;;;16.83;13.27;;;13.30;99.90;;;;;;4992204;28;20451;-69
2023/09/16 01:18:22;;;;;;;17.50;13.55;;;13.20;99.90;;;;;;5010534;28;20493;-68
2023/09/16 01:20:49;;;;;;;15.55;13.07;;;13.10;99.90;;;;;;4990713;28;20503;-69
2023/09/16 01:23:18;;;;;;;18.08;13.93;;;13.10;99.90;;;;;;5007601;28;20129;-68
2023/09/16 01:25:44;;;;;;;21.55;14.43;;;13.10;99.90;;;;;;4980791;28;20096;-69
2023/09/16 01:28:10;;;;;;;18.98;13.93;;;13.10;99.90;;;;;;5011565;28;20034;-69
2023/09/16 01:30:39;;;;;;;19.42;15.10;;;13.10;99.90;;;;;;4989087;28;20409;-68
2023/09/16 01:33:22;;;;;;;24.08;15.90;;;13.10;99.90;;;;;;4992175;28;20045;-69
2023/09/16 01:35:50;;;;;;;18.90;14.52;;;13.10;99.90;;;;;;4989610;28;20053;-69
2023/09/16 01:38:20;;;;;;;20.63;14.88;;;13.10;99.90;;;;;;5011514;28;20522;-69
2023/09/16 01:40:48;;;;;;;21.20;13.95;;;13.10;99.90;;;;;;5003917;28;20038;-70
2023/09/16 01:43:15;;;;;;;19.70;14.48;;;13.10;99.90;;;;;;5002532;28;20432;-68
2023/09/16 01:45:42;;;;;;;17.98;13.73;;;13.10;99.90;;;;;;4987092;28;20037;-69
2023/09/16 01:48:08;;;;;;;17.13;14.43;;;13.00;99.90;;;;;;4995363;28;20061;-68
2023/09/16 01:50:35;;;;;;;19.85;15.43;;;13.00;99.90;;;;;;5009090;28;20034;-68
2023/09/16 01:53:01;;;;;;;20.33;15.40;;;13.00;99.90;;;;;;5012603;28;20113;-69
2023/09/16 01:55:27;;;;;;;22.33;16.90;;;13.00;99.90;;;;;;4983571;28;20054;-70
2023/09/16 01:57:53;;;;;;;20.00;16.60;;;13.00;99.90;;;;;;4992161;28;20042;-70
2023/09/16 02:00:18;;;;;;;23.00;17.50;;;13.00;99.90;;;;;;5003640;28;20409;-68
2023/09/16 02:02:44;;;;;;;22.08;18.27;;;13.10;99.90;;;;;;4986845;28;20053;-68
2023/09/16 02:05:10;;;;;;;24.75;18.88;;;13.10;99.90;;;;;;4994853;28;20041;-68
2023/09/16 02:07:36;;;;;;;24.23;17.17;;;13.20;99.90;;;;;;5003538;28;20034;-68
2023/09/16 02:10:03;;;;;;;21.08;16.73;;;13.20;99.90;;;;;;5008829;28;20158;-68
2023/09/16 02:12:28;;;;;;;21.95;17.45;;;13.20;99.90;;;;;;4974962;28;20046;-68
2023/09/16 02:14:54;;;;;;;22.85;16.63;;;13.10;99.90;;;;;;4973601;28;20515;-68
2023/09/16 02:17:20;;;;;;;22.73;16.65;;;13.00;99.90;;;;;;4998812;28;20473;-68
2023/09/16 02:19:46;;;;;;;21.40;15.93;;;12.90;99.90;;;;;;4986651;28;20400;-68
2023/09/16 02:22:11;;;;;;;19.08;15.38;;;12.80;99.90;;;;;;5012623;28;20042;-68
2023/09/16 02:24:37;;;;;;;19.48;15.85;;;12.80;99.90;;;;;;4991756;28;20038;-68
2023/09/16 02:27:04;;;;;;;23.65;17.30;;;12.70;99.90;;;;;;4996774;28;20508;-68
2023/09/16 02:29:32;;;;;;;24.10;17.02;;;12.80;99.90;;;;;;5004051;28;20105;-68
2023/09/16 02:31:57;;;;;;;20.38;16.20;;;12.80;99.90;;;;;;4991488;28;20042;-68
2023/09/16 02:34:23;;;;;;;21.35;16.85;;;12.80;99.90;;;;;;5011197;28;20057;-68
2023/09/16 02:36:48;;;;;;;22.23;17.10;;;12.80;99.90;;;;;;5003555;28;20073;-68
2023/09/16 02:39:14;;;;;;;21.27;16.70;;;12.70;99.90;;;;;;4994658;28;20049;-68
2023/09/16 02:41:39;;;;;;;25.48;18.63;;;12.80;99.90;;;;;;5007439;28;20458;-68
2023/09/16 02:44:07;;;;;;;23.80;17.15;;;12.80;99.90;;;;;;5009413;28;20037;-68
2023/09/16 02:46:32;;;;;;;23.67;17.63;;;12.80;99.90;;;;;;4986943;28;20046;-68
2023/09/16 02:48:58;;;;;;;23.98;18.02;;;12.80;99.90;;;;;;4983761;28;20165;-68
2023/09/16 02:51:23;;;;;;;28.52;18.17;;;12.80;99.90;;;;;;5005877;28;20463;-68
2023/09/16 02:53:49;;;;;;;25.38;18.70;;;12.80;99.90;;;;;;4989247;28;20547;-68
2023/09/16 02:56:15;;;;;;;28.35;19.20;;;12.80;99.90;;;;;;5011845;28;20049;-68
2023/09/16 02:58:40;;;;;;;28.83;19.30;;;12.90;99.90;;;;;;5002156;28;20578;-68
2023/09/16 03:01:10;;;;;;;26.20;19.88;;;12.90;99.90;;;;;;4985135;28;20061;-68
2023/09/16 03:03:36;;;;;;;28.73;19.73;;;12.90;99.90;;;;;;4994211;28;20038;-68
2023/09/16 03:06:02;;;;;;;25.92;18.95;;;13.00;99.90;;;;;;4997267;28;20460;-68
2023/09/16 03:08:27;;;;;;;29.63;20.83;;;13.00;99.90;;;;;;4985341;28;20039;-68
2023/09/16 03:10:59;;;;;;;28.38;20.45;;;13.10;99.90;;;;;;5007212;28;20165;-68
2023/09/16 03:13:25;;;;;;;29.83;19.95;;;13.00;99.90;;;;;;5005073;28;20539;-68
2023/09/16 03:16:20;;;;;;;27.67;19.55;;;13.00;99.90;;;;;;5005271;28;20168;-68
2023/09/16 03:18:47;;;;;;;26.08;19.77;;;13.00;99.90;;;;;;5006307;28;20095;-68
2023/09/16 03:21:14;;;;;;;28.15;20.90;;;12.90;99.90;;;;;;4990318;28;20496;-67
2023/09/16 03:23:41;;;;;;;29.83;21.98;;;13.00;99.90;;;;;;5006745;28;20034;-68
2023/09/16 03:26:08;;;;;;;31.67;22.35;;;13.10;99.90;;;;;;4986621;28;20121;-68
2023/09/16 03:28:33;;;;;;;31.92;22.90;;;13.20;99.90;;;;;;5015354;28;20034;-68
2023/09/16 03:30:59;;;;;;;31.95;22.48;;;13.30;99.90;;;;;;5004804;28;20096;-68
2023/09/16 03:33:25;;;;;;;31.88;23.73;;;13.30;99.90;;;;;;4995409;28;20042;-68
2023/09/16 03:35:50;;;;;;;28.08;22.00;;;13.30;99.90;;;;;;5008269;28;20034;-68
2023/09/16 03:38:16;;;;;;;26.25;20.10;;;13.20;99.90;;;;;;5009784;28;20116;-68
2023/09/16 03:40:42;;;;;;;26.27;19.92;;;13.10;99.90;;;;;;4989403;28;20050;-68
2023/09/16 03:43:08;;;;;;;24.67;18.33;;;12.90;99.90;;;;;;5006706;28;20034;-68
2023/09/16 03:45:33;;;;;;;25.10;18.92;;;12.70;99.90;;;;;;5015278;28;20050;-68
2023/09/16 03:47:59;;;;;;;26.58;19.88;;;12.60;99.90;;;;;;5010013;28;20038;-67
2023/09/16 03:50:25;;;;;;;28.33;20.65;;;12.60;99.90;;;;;;5010449;28;20107;-68
2023/09/16 03:52:51;;;;;;;28.98;21.52;;;12.60;99.90;;;;;;4989241;28;20041;-68
2023/09/16 03:55:16;;;;;;;24.92;19.58;;;12.50;99.90;;;;;;4993027;28;20127;-68
2023/09/16 03:57:42;;;;;;;30.17;20.17;;;12.50;99.90;;;;;;5002576;28;20038;-68
2023/09/16 04:00:08;;;;;;;25.38;19.13;;;12.50;99.90;;;;;;5006508;28;20037;-68
2023/09/16 04:02:33;;;;;;;26.08;19.45;;;12.40;99.90;;;;;;5006368;28;20409;-67
2023/09/16 04:04:59;;;;;;;25.98;20.08;;;12.40;99.90;;;;;;4997072;28;20128;-68
2023/09/16 04:07:24;;;;;;;24.75;18.23;;;12.40;99.90;;;;;;4999849;28;20042;-68
2023/09/16 04:09:50;;;;;;;28.85;19.75;;;12.30;99.90;;;;;;5002652;28;20093;-68
2023/09/16 04:12:16;;;;;;;23.35;17.02;;;12.30;99.90;;;;;;5001654;28;20121;-68
2023/09/16 04:14:41;;;;;;;26.20;18.77;;;12.20;99.90;;;;;;4989398;28;20073;-68
2023/09/16 04:17:08;;;;;;;24.15;16.92;;;12.10;99.90;;;;;;5005851;28;20541;-68
2023/09/16 04:19:33;;;;;;;25.80;18.05;;;12.10;99.90;;;;;;5014792;28;20060;-68
2023/09/16 04:21:59;;;;;;;25.38;19.08;;;12.10;99.90;;;;;;5005012;28;20046;-68
2023/09/16 04:24:24;;;;;;;24.67;17.63;;;12.10;99.90;;;;;;5005885;28;20049;-68
2023/09/16 04:26:50;;;;;;;28.27;18.92;;;12.00;99.90;;;;;;4991372;28;20042;-68
2023/09/16 04:29:15;;;;;;;31.42;21.65;;;12.10;99.90;;;;;;4999756;28;20045;-68
2023/09/16 04:31:41;;;;;;;30.55;20.40;;;12.10;99.90;;;;;;5002608;28;20119;-68
2023/09/16 04:34:06;;;;;;;27.85;20.90;;;12.20;99.90;;;;;;5011756;28;20117;-68
2023/09/16 04:36:32;;;;;;;26.20;19.42;;;12.10;99.90;;;;;;5008274;28;20046;-68
2023/09/16 04:38:58;;;;;;;23.63;18.10;;;12.10;99.90;;;;;;5007514;28;20058;-68
2023/09/16 04:41:24;;;;;;;27.63;19.17;;;12.00;99.90;;;;;;4977137;28;20050;-69
2023/09/16 04:43:51;;;;;;;28.55;19.63;;;11.90;99.90;;;;;;4977140;28;20517;-68
2023/09/16 04:46:18;;;;;;;27.30;20.23;;;11.90;99.90;;;;;;5001372;28;20052;-68
2023/09/16 04:48:47;;;;;;;26.17;19.15;;;11.90;99.90;;;;;;5002274;28;20049;-68
2023/09/16 04:51:13;;;;;;;27.33;19.50;;;11.80;99.90;;;;;;5012536;28;20087;-69
2023/09/16 04:53:39;;;;;;;26.67;18.35;;;11.90;99.90;;;;;;5006418;28;20042;-69
2023/09/16 04:56:10;;;;;;;27.00;19.63;;;11.80;99.90;;;;;;5001597;28;20069;-68
2023/09/16 04:58:36;;;;;;;28.17;19.73;;;11.70;99.90;;;;;;5009012;28;20034;-68
2023/09/16 05:01:05;;;;;;;30.08;20.90;;;11.70;99.90;;;;;;5009438;28;20026;-68
2023/09/16 05:03:31;;;;;;;30.27;21.83;;;11.70;99.90;;;;;;4991391;28;20042;-68
2023/09/16 05:05:57;;;;;;;28.67;22.30;;;11.80;99.90;;;;;;4979905;28;20043;-68
2023/09/16 05:08:23;;;;;;;32.75;22.55;;;11.80;99.90;;;;;;4990014;28;20046;-69
2023/09/16 05:10:53;;;;;;;31.23;23.00;;;11.90;99.90;;;;;;5001637;28;20120;-69
2023/09/16 05:13:19;;;;;;;27.98;20.90;;;12.00;99.90;;;;;;5005352;28;20507;-69
2023/09/16 05:15:49;;;;;;;27.20;19.90;;;11.90;99.90;;;;;;5001478;28;20026;-69
2023/09/16 05:18:15;;;;;;;27.60;19.80;;;11.90;99.90;;;;;;4992427;28;20056;-69
2023/09/16 05:20:41;;;;;;;25.33;19.30;;;11.80;99.90;;;;;;4982821;28;20030;-69
2023/09/16 05:23:06;;;;;;;23.80;18.85;;;11.70;99.90;;;;;;4986510;28;20400;-69
2023/09/16 05:25:32;;;;;;;27.33;20.67;;;11.70;99.90;;;;;;4998111;28;20096;-69
2023/09/16 05:27:57;;;;;;;27.13;19.77;;;11.80;99.90;;;;;;5003438;28;20046;-68
2023/09/16 05:30:23;;;;;;;29.27;21.35;;;11.80;99.90;;;;;;5004411;28;20037;-68
2023/09/16 05:32:49;;;;;;;28.15;20.17;;;11.80;99.90;;;;;;5005149;28;20035;-68
2023/09/16 05:35:14;;;;;;;28.83;21.15;;;11.90;99.90;;;;;;4999176;28;20121;-68
2023/09/16 05:37:40;;;;;;;29.63;21.45;;;11.90;99.90;;;;;;4982708;28;20050;-68
2023/09/16 05:40:06;;;;;;;28.35;20.63;;;11.90;99.90;;;;;;5002508;28;20038;-68
2023/09/16 05:42:32;;;;;;;29.60;20.65;;;11.90;99.90;;;;;;4984149;28;20041;-67
2023/09/16 05:45:00;;;;;;;27.52;20.65;;;11.90;99.90;;;;;;4967732;28;20042;-67
2023/09/16 05:47:30;;;;;;;27.08;20.65;;;12.00;99.90;;;;;;4982033;28;20045;-70
2023/09/16 05:49:57;;;;;;;25.83;19.95;;;11.90;99.90;;;;;;4985700;28;20034;-67
2023/09/16 05:52:22;;;;;;;28.48;19.42;;;12.00;99.90;;;;;;4999087;28;20561;-66
2023/09/16 05:54:48;;;;;;;33.00;21.67;;;12.10;99.90;;;;;;4982853;28;20053;-67
2023/09/16 05:57:13;;;;;;;28.73;20.08;;;12.20;99.90;;;;;;5004216;28;20050;-67
2023/09/16 05:59:39;;;;;;;28.70;20.42;;;12.20;99.90;;;;;;4987943;28;20049;-73
2023/09/16 06:02:05;;;;;;;31.90;21.27;;;12.30;99.90;;;;;;5001614;28;20512;-67
2023/09/16 06:04:30;;;;;;;28.08;19.65;;;12.30;99.90;;;;;;4989307;28;20049;-67
2023/09/16 06:06:56;;;;;;;32.10;22.77;;;12.30;99.90;;;;;;4989650;28;20049;-67
2023/09/16 06:09:21;;;;;;;33.35;23.23;;;12.40;99.90;;;;;;5003539;28;20045;-67
2023/09/16 06:11:47;;;;;;;35.28;25.00;;;12.50;99.90;;;;;;4983016;28;20112;-68
2023/09/16 06:14:13;;;;;;;37.53;26.35;;;12.70;99.90;;;;;;5002055;28;20049;-68
2023/09/16 06:16:38;;;;;;;34.67;24.15;;;12.80;99.90;;;;;;4969664;28;20078;-67
2023/09/16 06:19:04;;;;;;;35.75;24.65;;;12.90;99.90;;;;;;5136767;23;20418;-68
2023/09/16 06:21:30;;;;;;;34.95;25.38;;;12.90;99.90;;;;;;5020695;28;20038;-68
2023/09/16 06:23:57;;;;;;;35.58;25.30;;;13.00;99.90;;;;;;5028862;28;20041;-68
2023/09/16 06:26:23;;;;;;;37.28;25.77;;;13.10;99.90;;;;;;5003057;28;20041;-68
2023/09/16 06:28:49;;;;;;;39.42;25.70;;;13.20;99.90;;;;;;5007928;28;20033;-70
2023/09/16 06:31:14;;;;;;;39.72;26.77;;;13.30;99.90;;;;;;5015320;28;20048;-67
2023/09/16 06:33:40;;;;;;;38.13;25.13;;;13.30;99.90;;;;;;5027299;28;20042;-72
2023/09/16 06:36:05;;;;;;;35.65;25.63;;;13.40;99.90;;;;;;5011163;28;20057;-73
2023/09/16 06:38:31;;;;;;;44.90;25.77;;;13.40;99.90;;;;;;5006796;28;20380;-73
2023/09/16 06:40:57;;;;;;;36.95;26.30;;;13.50;99.90;;;;;;5002410;28;20124;-73
2023/09/16 06:43:23;;;;;;;36.13;25.65;;;13.60;99.90;;;;;;5003547;28;20053;-73
2023/09/16 06:45:49;;;;;;;37.00;25.90;;;13.70;99.90;;;;;;5011044;28;20041;-73
2023/09/16 06:48:15;;;;;;;34.83;25.63;;;13.80;99.90;;;;;;5005305;28;20048;-73
2023/09/16 06:50:41;;;;;;;37.50;26.60;;;13.80;99.90;;;;;;4992043;28;25919;-73
2023/09/16 06:53:07;;;;;;;41.35;26.98;;;13.90;99.90;;;;;;5024828;28;20037;-73
2023/09/16 06:55:33;;;;;;;35.33;24.45;;;13.90;99.90;;;;;;5013527;28;20494;-73
2023/09/16 06:57:59;;;;;;;34.40;25.52;;;14.00;99.90;;;;;;5007342;23;20468;-75
2023/09/16 07:00:24;;;;;;;35.35;25.73;;;14.10;99.90;;;;;;5016400;28;20130;-73
2023/09/16 07:02:52;;;;;;;36.83;25.70;;;14.20;99.90;;;;;;5008985;28;20061;-74
2023/09/16 07:05:17;;;;;;;37.88;26.40;;;14.30;99.90;;;;;;4994927;28;20053;-73
2023/09/16 07:07:43;;;;;;;35.53;26.45;;;14.40;99.90;;;;;;4993754;28;20033;-73
2023/09/16 07:10:09;;;;;;;37.97;26.75;;;14.50;99.90;;;;;;4994517;28;20511;-73
2023/09/16 07:12:34;;;;;;;39.30;26.23;;;14.60;99.90;;;;;;5032128;23;20137;-72
2023/09/16 07:15:00;;;;;;;37.60;26.38;;;14.70;99.90;;;;;;5041371;28;20046;-72
2023/09/16 07:17:25;;;;;;;37.90;27.67;;;14.80;99.90;;;;;;5033315;28;20040;-72
2023/09/16 07:19:51;;;;;;;36.85;25.65;;;14.90;99.90;;;;;;5027460;28;20037;-72
2023/09/16 07:22:18;;;;;;;38.35;25.95;;;15.10;99.90;;;;;;5047312;28;20055;-71
2023/09/16 07:24:44;;;;;;;38.25;26.17;;;15.10;99.90;;;;;;5013782;28;20042;-72
2023/09/16 07:27:09;;;;;;;37.15;26.13;;;15.30;99.90;;;;;;5031134;28;20045;-72
2023/09/16 07:29:35;;;;;;;35.20;24.98;;;15.30;99.90;;;;;;5043764;28;20479;-73
2023/09/16 07:32:00;;;;;;;34.75;25.02;;;15.40;99.90;;;;;;5021535;28;20044;-72
2023/09/16 07:34:26;;;;;;;33.78;24.25;;;15.50;99.90;;;;;;5019886;28;20114;-71
2023/09/16 07:36:52;;;;;;;31.23;23.67;;;15.60;99.90;;;;;;5005550;28;20052;-72
2023/09/16 07:39:18;;;;;;;31.23;24.05;;;15.70;99.90;;;;;;5032231;28;20033;-71
2023/09/16 07:41:43;;;;;;;33.55;24.42;;;15.80;99.90;;;;;;5017465;28;20380;-72
2023/09/16 07:44:09;;;;;;;36.25;24.77;;;15.90;99.90;;;;;;5028887;28;20068;-71
2023/09/16 07:46:34;;;;;;;30.85;23.90;;;16.10;99.90;;;;;;5029591;28;20042;-71
2023/09/16 07:49:01;;;;;;;30.20;23.45;;;16.10;99.90;;;;;;5017575;28;20099;-71
2023/09/16 07:51:26;;;;;;;29.90;23.05;;;16.10;99.90;;;;;;5030667;28;20052;-71
2023/09/16 07:53:52;;;;;;;31.40;22.58;;;16.20;99.90;;;;;;5042342;28;20032;-72
2023/09/16 07:56:18;;;;;;;31.00;23.17;;;16.30;99.90;;;;;;5041908;28;20049;-71
2023/09/16 07:58:44;;;;;;;30.02;22.70;;;16.40;99.90;;;;;;5012688;28;20080;-71
2023/09/16 08:01:09;;;;;;;31.95;21.52;;;16.40;99.90;;;;;;4997903;28;20065;-71
2023/09/16 08:03:37;;;;;;;31.92;23.35;;;16.60;99.90;;;;;;5032503;28;20116;-71
2023/09/16 08:06:03;;;;;;;26.95;21.70;;;16.80;99.90;;;;;;5042497;28;20466;-71
2023/09/16 08:08:29;;;;;;;27.25;21.15;;;16.90;99.90;;;;;;5049021;28;20068;-71
2023/09/16 08:10:55;;;;;;;29.17;21.00;;;16.90;99.90;;;;;;5034950;28;20064;-71
2023/09/16 08:13:20;;;;;;;28.42;21.48;;;17.10;99.90;;;;;;5053987;28;20072;-72
2023/09/16 08:15:46;;;;;;;29.45;20.90;;;17.10;99.90;;;;;;5048726;28;20044;-72
2023/09/16 08:18:12;;;;;;;26.92;20.20;;;17.10;99.90;;;;;;5033789;28;20061;-71
2023/09/16 08:20:37;;;;;;;29.30;21.98;;;17.10;99.90;;;;;;5051776;28;20033;-71
2023/09/16 08:23:04;;;;;;;25.85;19.95;;;17.10;99.90;;;;;;5042028;28;20032;-71
2023/09/16 08:25:30;;;;;;;28.73;20.40;;;17.20;99.90;;;;;;5044766;28;20045;-71
2023/09/16 08:27:55;;;;;;;26.27;20.42;;;17.20;99.90;;;;;;5039293;28;20057;-71
2023/09/16 08:30:21;;;;;;;28.52;20.85;;;17.30;99.90;;;;;;5046343;28;20043;-72
2023/09/16 08:32:47;;;;;;;25.13;20.52;;;17.30;99.90;;;;;;5044413;28;20049;-72
2023/09/16 08:35:13;;;;;;;28.30;20.55;;;17.40;99.90;;;;;;5049218;28;20045;-73
2023/09/16 08:37:38;;;;;;;29.65;20.23;;;17.50;99.90;;;;;;5030857;28;20064;-71
2023/09/16 08:40:04;;;;;;;25.67;21.00;;;17.50;99.90;;;;;;5038094;28;20518;-71
2023/09/16 08:42:36;;;;;;;25.60;20.17;;;17.50;99.90;;;;;;5052469;28;20073;-70
2023/09/16 08:45:08;;;;;;;24.45;19.90;;;17.60;99.90;;;;;;5052457;28;20048;-71
2023/09/16 08:47:40;;;;;;;26.95;20.58;;;17.70;99.90;;;;;;5049363;28;20056;-70
2023/09/16 08:50:10;;;;;;;25.13;20.48;;;17.70;99.90;;;;;;5022904;28;20029;-71
2023/09/16 08:52:48;;;;;;;24.65;19.05;;;17.70;99.90;;;;;;5022932;28;20049;-71
2023/09/16 08:55:15;;;;;;;23.92;19.10;;;17.80;99.90;;;;;;5014374;28;20128;-71
2023/09/16 08:58:04;;;;;;;28.23;20.95;;;17.80;99.90;;;;;;5027540;28;20117;-75
2023/09/16 09:00:30;;;;;;;30.75;21.45;;;18.00;99.90;;;;;;5044337;28;20033;-72
2023/09/16 09:02:56;;;;;;;29.80;21.17;;;18.10;99.90;;;;;;5051261;28;20036;-71
2023/09/16 09:05:23;;;;;;;28.02;21.30;;;18.30;99.90;;;;;;5042066;28;20043;-71
2023/09/16 09:07:49;;;;;;;25.48;20.02;;;18.50;99.90;;;;;;5028108;28;20060;-71
2023/09/16 09:10:14;;;;;;;26.40;19.50;;;18.70;99.90;;;;;;5035054;28;20120;-71
2023/09/16 09:12:41;;;;;;;26.77;19.42;;;18.90;99.90;;;;;;5035244;28;20065;-71
2023/09/16 09:15:14;;;;;;;28.25;17.90;;;19.00;99.90;;;;;;5024263;28;20135;-70
2023/09/16 09:17:57;;;;;;;22.80;17.48;;;19.20;99.90;;;;;;5034456;28;20123;-70
2023/09/16 09:20:27;;;;;;;21.65;16.13;;;19.30;99.90;;;;;;5050709;28;20044;-74
2023/09/16 09:22:56;;;;;;;19.35;15.82;;;19.30;99.90;;;;;;5047068;28;20048;-70
2023/09/16 09:25:26;;;;;;;19.30;15.73;;;19.30;99.90;;;;;;5023720;28;20049;-70
2023/09/16 09:27:53;;;;;;;18.77;14.48;;;19.40;99.90;;;;;;5014040;28;20049;-70
2023/09/16 09:30:24;;;;;;;19.13;15.23;;;19.50;99.90;;;;;;5024553;28;20041;-70
2023/09/16 09:32:50;;;;;;;19.23;14.50;;;19.70;99.90;;;;;;5052667;28;20075;-70
2023/09/16 09:35:16;;;;;;;16.38;12.52;;;19.90;99.90;;;;;;5043510;28;20044;-70
2023/09/16 09:37:42;;;;;;;17.67;14.25;;;20.00;99.90;;;;;;5041014;28;20037;-70
2023/09/16 09:40:12;;;;;;;18.55;14.10;;;20.10;99.90;;;;;;5046892;28;20033;-69
2023/09/16 09:42:40;;;;;;;15.73;12.47;;;20.20;99.90;;;;;;5046301;28;20136;-69
2023/09/16 09:45:06;;;;;;;13.15;10.75;;;20.30;99.90;;;;;;5020549;28;20037;-69
2023/09/16 09:47:32;;;;;;;15.80;11.00;;;20.30;99.90;;;;;;5039614;28;20471;-69
2023/09/16 09:49:59;;;;;;;14.23;11.93;;;20.20;99.90;;;;;;5038322;28;20048;-69
2023/09/16 09:52:25;;;;;;;15.50;12.63;;;20.20;99.90;;;;;;5042708;28;20048;-69
2023/09/16 09:54:55;;;;;;;15.85;12.98;;;20.20;99.90;;;;;;5027751;28;20043;-70
2023/09/16 09:57:21;;;;;;;16.17;13.73;;;20.20;99.90;;;;;;5052039;28;22282;-70
2023/09/16 09:59:47;;;;;;;15.38;12.73;;;20.20;99.90;;;;;;5049328;28;20045;-69
2023/09/16 10:02:14;;;;;;;18.75;13.88;;;20.20;99.90;;;;;;5022992;28;20041;-70
2023/09/16 10:04:39;;;;;;;19.85;13.90;;;20.20;99.90;;;;;;5039590;28;20040;-69
2023/09/16 10:07:05;;;;;;;17.70;14.55;;;20.20;99.90;;;;;;5034237;28;20045;-70
2023/09/16 10:09:31;;;;;;;18.27;14.32;;;20.30;99.90;;;;;;5052148;28;20072;-69
2023/09/16 10:11:57;;;;;;;15.50;12.00;;;20.30;99.90;;;;;;5040518;28;20052;-69
2023/09/16 10:14:22;;;;;;;15.90;12.85;;;20.40;99.90;;;;;;5029351;28;20072;-69
2023/09/16 10:16:48;;;;;;;17.70;13.15;;;20.50;99.90;;;;;;5051344;28;20041;-71
2023/09/16 10:19:15;;;;;;;17.52;12.32;;;20.60;99.90;;;;;;5003376;28;20087;-70
2023/09/16 10:21:40;;;;;;;14.80;11.18;;;20.60;99.90;;;;;;5025414;28;20037;-70
2023/09/16 10:24:08;;;;;;;15.52;11.45;;;20.70;99.90;;;;;;5042851;28;20055;-70
2023/09/16 10:26:34;;;;;;;17.55;11.95;;;20.80;99.90;;;;;;5013991;28;20045;-70
2023/09/16 10:29:00;;;;;;;12.88;10.30;;;20.90;99.90;;;;;;5012833;28;20033;-69
2023/09/16 10:31:27;;;;;;;13.80;10.20;;;20.90;99.90;;;;;;5019786;28;20040;-69
2023/09/16 10:33:54;;;;;;;12.15;10.13;;;21.00;99.90;;;;;;5040093;28;20039;-70
2023/09/16 10:36:21;;;;;;;13.27;9.75;;;21.10;99.90;;;;;;5020897;28;20411;-71
2023/09/16 10:38:48;;;;;;;11.63;9.15;;;21.10;99.90;;;;;;5038076;28;20139;-69
2023/09/16 10:41:16;;;;;;;12.52;8.45;;;21.20;99.90;;;;;;5037840;28;20626;-67
2023/09/16 10:43:43;;;;;;;10.90;8.20;;;21.30;99.90;;;;;;5040137;28;20506;-68
2023/09/16 10:46:09;;;;;;;11.82;7.50;;;21.40;99.90;;;;;;5038918;28;20041;-72
2023/09/16 10:48:34;;;;;;;13.73;8.20;;;21.50;99.90;;;;;;5042430;28;20035;-70
2023/09/16 10:51:05;;;;;;;10.30;8.48;;;21.50;99.90;;;;;;5040477;28;20438;-69
2023/09/16 10:53:40;;;;;;;9.52;8.27;;;21.60;99.90;;;;;;5022150;28;20115;-70
2023/09/16 10:56:20;;;;;;;10.27;8.10;;;21.70;99.90;;;;;;5024102;28;20510;-69
2023/09/16 10:58:48;;;;;;;12.23;8.60;;;21.80;99.90;;;;;;5020773;28;20044;-70
2023/09/16 11:01:27;;;;;;;9.68;6.18;;;22.00;99.90;;;;;;5017415;28;20041;-70
2023/09/16 11:03:57;;;;;;;8.27;6.80;;;22.00;99.90;;;;;;5030482;28;20041;-70
2023/09/16 11:06:23;;;;;;;6.30;4.77;;;22.10;99.90;;;;;;5050673;28;20041;-70
2023/09/16 11:08:49;;;;;;;7.85;5.40;;;22.20;99.90;;;;;;5009104;28;20380;-72
2023/09/16 11:11:15;;;;;;;6.03;5.25;;;22.30;99.90;;;;;;5048473;28;20705;-69
2023/09/16 11:13:41;;;;;;;8.93;5.55;;;22.40;99.90;;;;;;5050910;28;20117;-70
2023/09/16 11:16:10;;;;;;;7.70;3.75;;;22.50;99.90;;;;;;5051268;28;20047;-70
2023/09/16 11:18:42;;;;;;;6.22;3.90;;;22.60;99.90;;;;;;5030092;28;20095;-70
2023/09/16 11:21:08;;;;;;;6.72;4.72;;;22.70;99.90;;;;;;5021758;28;20037;-70
2023/09/16 11:23:35;;;;;;;6.63;4.88;;;22.90;99.90;;;;;;5017577;28;20487;-69
2023/09/16 11:26:02;;;;;;;6.35;4.75;;;23.00;99.90;;;;;;5018743;28;20146;-70
2023/09/16 11:28:28;;;;;;;7.15;4.80;;;23.00;99.90;;;;;;5042829;28;20506;-70
2023/09/16 11:31:00;;;;;;;7.80;5.38;;;22.90;99.90;;;;;;5014738;28;20705;-70
2023/09/16 11:33:26;;;;;;;7.53;4.75;;;23.00;99.90;;;;;;5033365;28;20132;-71
2023/09/16 11:36:15;;;;;;;8.30;5.22;;;23.10;99.90;;;;;;5021286;28;20076;-70
2023/09/16 11:38:53;;;;;;;5.35;4.53;;;23.20;99.90;;;;;;5026361;28;20052;-70
2023/09/16 11:41:18;;;;;;;6.78;4.85;;;23.30;99.90;;;;;;5029862;28;20052;-71
2023/09/16 11:43:44;;;;;;;5.22;4.38;;;23.40;99.90;;;;;;5036916;28;20431;-70
2023/09/16 11:46:11;;;;;;;8.25;4.50;;;23.40;99.90;;;;;;5049957;28;20056;-70
2023/09/16 11:48:57;;;;;;;8.20;4.80;;;23.50;99.90;;;;;;5016158;28;20116;-70
2023/09/16 11:51:25;;;;;;;6.57;4.50;;;23.50;99.90;;;;;;5035086;28;20090;-70
2023/09/16 11:53:53;;;;;;;5.82;4.50;;;23.60;99.90;;;;;;5047840;28;20503;-70
2023/09/16 11:56:22;;;;;;;5.40;4.20;;;23.70;99.90;;;;;;5016913;28;20037;-70
2023/09/16 11:58:48;;;;;;;6.18;4.00;;;23.70;99.90;;;;;;5013798;28;20121;-72
2023/09/16 12:01:20;;;;;;;9.13;4.57;;;23.70;99.90;;;;;;5032053;28;20056;-71
2023/09/16 12:03:47;;;;;;;6.72;4.53;;;23.90;99.90;;;;;;5045371;28;20038;-70
2023/09/16 12:06:12;;;;;;;6.35;4.70;;;23.90;99.90;;;;;;4999103;28;20049;-71
2023/09/16 12:08:40;;;;;;;7.07;4.60;;;23.90;99.90;;;;;;5018294;28;20033;-71
2023/09/16 12:11:06;;;;;;;5.65;4.30;;;24.00;99.90;;;;;;5045450;28;20167;-70
2023/09/16 12:13:32;;;;;;;4.95;3.72;;;24.10;99.90;;;;;;5034009;28;20128;-70
2023/09/16 12:15:58;;;;;;;5.05;4.18;;;24.10;99.90;;;;;;5020502;28;20045;-69
2023/09/16 12:18:25;;;;;;;4.25;3.65;;;24.20;99.90;;;;;;5048625;28;20392;-71
2023/09/16 12:20:52;;;;;;;4.57;3.63;;;24.40;99.90;;;;;;5047613;28;20036;-72
2023/09/16 12:23:18;;;;;;;5.72;3.55;;;24.40;99.90;;;;;;5034474;28;20053;-71
2023/09/16 12:25:45;;;;;;;5.47;3.85;;;24.40;99.90;;;;;;5023360;28;20065;-71
2023/09/16 12:28:16;;;;;;;4.82;4.05;;;24.50;99.90;;;;;;5031061;28;20541;-71